createdAt,value
2019-01-11T00:02:40.111Z,2.37
2019-01-11T00:07:42.399Z,2.47
2019-01-11T00:12:45.392Z,2.40
2019-01-11T00:17:48.071Z,2.49
2019-01-11T00:22:50.894Z,2.65
2019-01-11T00:27:53.897Z,2.77
2019-01-11T00:32:56.165Z,2.65
2019-01-11T00:37:58.913Z,2.73
2019-01-11T00:43:01.523Z,2.83
2019-01-11T00:48:04.712Z,2.81
2019-01-11T00:53:07.502Z,2.98
2019-01-11T00:58:10.502Z,3.07
2019-01-11T01:03:13.201Z,3.25
2019-01-11T01:08:15.701Z,3.11
2019-01-11T01:13:18.700Z,3.36
2019-01-11T01:18:21.913Z,3.36
2019-01-11T01:23:25.116Z,3.42
2019-01-11T01:28:28.349Z,3.56
2019-01-11T01:33:30.728Z,3.67
2019-01-11T01:38:33.530Z,3.84
2019-01-11T01:43:36.030Z,3.94
2019-01-11T01:48:38.915Z,3.95
2019-01-11T01:53:41.418Z,3.95
2019-01-11T01:58:44.084Z,4.03
2019-01-11T02:03:46.691Z,4.03
2019-01-11T02:08:49.608Z,4.18
2019-01-11T02:13:51.806Z,4.15
2019-01-11T02:18:55.407Z,4.31
2019-01-11T02:23:58.060Z,4.38
2019-01-11T02:29:00.763Z,4.44
2019-01-11T02:34:03.678Z,4.46
2019-01-11T02:39:07.235Z,4.49
2019-01-11T02:44:10.003Z,4.54
2019-01-11T02:49:12.030Z,4.59
2019-01-11T02:54:14.104Z,4.70
2019-01-11T02:59:16.793Z,4.68
2019-01-11T03:04:19.415Z,4.74
2019-01-11T03:09:21.626Z,4.88
2019-01-11T03:14:24.303Z,4.73
2019-01-11T03:19:27.112Z,4.88
2019-01-11T03:24:29.886Z,4.93
2019-01-11T03:29:32.678Z,4.94
2019-01-11T03:34:39.273Z,5.00
2019-01-11T03:39:41.866Z,5.05
2019-01-11T03:44:44.437Z,5.07
2019-01-11T03:49:47.180Z,5.07
2019-01-11T03:54:49.339Z,5.04
2019-01-11T03:59:51.973Z,5.18
2019-01-11T04:04:54.843Z,5.28
2019-01-11T04:09:57.632Z,5.26
2019-01-11T04:15:00.241Z,5.39
2019-01-11T04:20:04.475Z,5.50
2019-01-11T04:25:09.875Z,5.57
2019-01-11T04:30:14.991Z,5.74
2019-01-11T04:35:18.284Z,5.74
2019-01-11T04:40:21.081Z,5.87
2019-01-11T04:45:23.692Z,5.85
2019-01-11T04:50:26.194Z,5.84
2019-01-11T04:55:29.193Z,5.89
2019-01-11T05:00:31.419Z,5.93
2019-01-11T05:05:34.242Z,5.98
2019-01-11T05:10:37.163Z,5.94
2019-01-11T05:15:39.880Z,5.95
2019-01-11T05:20:42.989Z,6.02
2019-01-11T05:25:45.891Z,6.04
2019-01-11T05:30:48.608Z,5.98
2019-01-11T05:35:51.472Z,6.00
2019-01-11T05:40:53.465Z,6.03
2019-01-11T05:45:56.068Z,5.98
2019-01-11T05:50:58.733Z,6.06
2019-01-11T05:56:06.701Z,6.09
2019-01-11T06:01:09.597Z,6.05
2019-01-11T06:06:12.806Z,6.17
2019-01-11T06:11:15.808Z,6.15
2019-01-11T06:16:17.917Z,6.20
2019-01-11T06:21:19.946Z,6.17
2019-01-11T06:26:22.588Z,6.19
2019-01-11T06:31:24.972Z,6.21
2019-01-11T06:36:27.569Z,6.38
2019-01-11T06:41:39.684Z,6.34
2019-01-11T06:46:42.167Z,6.51
2019-01-11T06:51:45.150Z,6.46
2019-01-11T06:56:48.282Z,6.51
2019-01-11T07:01:50.668Z,6.57
2019-01-11T07:06:53.598Z,6.44
2019-01-11T07:11:56.345Z,6.58
2019-01-11T07:16:58.377Z,6.59
2019-01-11T07:22:01.511Z,6.61
2019-01-11T07:27:03.446Z,6.62
2019-01-11T07:32:06.652Z,6.65
2019-01-11T07:37:09.468Z,6.62
2019-01-11T07:42:11.857Z,6.69
2019-01-11T07:47:14.911Z,6.71
2019-01-11T07:52:18.177Z,6.72
2019-01-11T07:57:20.255Z,6.73
2019-01-11T08:02:22.741Z,6.73
2019-01-11T08:07:24.879Z,6.75
2019-01-11T08:12:27.118Z,6.71
2019-01-11T08:17:29.509Z,6.84
2019-01-11T08:22:37.127Z,6.78
2019-01-11T08:27:39.983Z,6.72
2019-01-11T08:32:42.314Z,6.73
2019-01-11T08:37:46.534Z,6.81
2019-01-11T08:42:49.218Z,6.75
2019-01-11T08:47:51.537Z,6.77
2019-01-11T08:52:55.247Z,6.88
2019-01-11T08:57:58.278Z,6.97
2019-01-11T09:03:00.301Z,6.89
2019-01-11T09:08:03.661Z,6.99
2019-01-11T09:13:06.152Z,7.01
2019-01-11T09:18:30.042Z,7.00
2019-01-11T09:23:32.645Z,6.98
2019-01-11T09:28:35.032Z,6.90
2019-01-11T09:33:37.721Z,6.99
2019-01-11T09:38:40.498Z,7.05
2019-01-11T09:43:42.723Z,7.04
2019-01-11T09:48:45.213Z,7.04
2019-01-11T09:53:47.961Z,7.12
2019-01-11T09:58:50.067Z,7.10
2019-01-11T10:03:52.855Z,7.04
2019-01-11T10:08:55.262Z,7.11
2019-01-11T10:13:58.150Z,7.14
2019-01-11T10:19:00.803Z,7.20
2019-01-11T10:24:03.648Z,7.35
2019-01-11T10:29:06.181Z,7.38
2019-01-11T10:34:08.779Z,7.56
2019-01-11T10:39:11.398Z,7.63
2019-01-11T10:44:14.229Z,7.55
2019-01-11T10:49:17.058Z,7.77
2019-01-11T10:54:32.968Z,7.85
2019-01-11T10:59:35.296Z,7.84
2019-01-11T11:04:38.579Z,7.84
2019-01-11T11:09:41.545Z,7.95
2019-01-11T11:14:44.085Z,8.02
2019-01-11T11:19:46.881Z,8.13
2019-01-11T11:24:49.738Z,8.18
2019-01-11T11:29:52.670Z,8.14
2019-01-11T11:34:55.335Z,8.17
2019-01-11T11:39:57.784Z,7.89
2019-01-11T11:44:59.864Z,7.89
2019-01-11T11:50:02.345Z,7.98
2019-01-11T11:55:05.757Z,8.00
2019-01-11T12:00:11.651Z,7.99
2019-01-11T12:05:14.706Z,8.05
2019-01-11T12:10:17.852Z,7.99
2019-01-11T12:15:20.947Z,7.92
2019-01-11T12:20:29.148Z,7.88
2019-01-11T12:25:31.994Z,7.80
2019-01-11T12:30:34.897Z,7.84
2019-01-11T12:35:37.627Z,7.89
2019-01-11T12:40:40.501Z,7.87
2019-01-11T12:45:42.916Z,8.08
2019-01-11T12:50:45.636Z,8.33
2019-01-11T12:55:48.577Z,8.51
2019-01-11T13:00:50.810Z,8.65
2019-01-11T13:05:53.642Z,8.39
2019-01-11T13:10:56.208Z,8.28
2019-01-11T13:15:58.953Z,8.47
2019-01-11T13:21:01.453Z,8.11
2019-01-11T13:26:04.712Z,7.96
2019-01-11T13:31:07.531Z,7.97
2019-01-11T13:36:14.684Z,8.03
2019-01-11T13:41:17.331Z,8.01
2019-01-11T13:46:20.161Z,8.04
2019-01-11T13:51:22.853Z,7.88
2019-01-11T13:56:25.506Z,7.90
2019-01-11T14:01:28.384Z,8.10
2019-01-11T14:06:31.277Z,8.01
2019-01-11T14:11:33.949Z,7.94
2019-01-11T14:16:36.754Z,7.89
2019-01-11T14:21:39.431Z,7.86
2019-01-11T14:26:42.380Z,7.87
2019-01-11T14:31:45.492Z,7.86
2019-01-11T14:36:48.282Z,7.78
2019-01-11T14:41:51.254Z,7.63
2019-01-11T14:46:54.191Z,7.70
2019-01-11T14:51:57.428Z,7.63
2019-01-11T14:57:00.239Z,7.54
2019-01-11T15:02:02.893Z,7.37
2019-01-11T15:07:05.894Z,7.21
2019-01-11T15:12:08.502Z,7.21
2019-01-11T15:17:11.103Z,7.05
2019-01-11T15:22:14.398Z,7.08
2019-01-11T15:27:16.273Z,6.89
2019-01-11T15:32:18.912Z,6.87
2019-01-11T15:37:22.015Z,6.89
2019-01-11T15:42:24.785Z,6.93
2019-01-11T15:47:27.512Z,7.01
2019-01-11T15:52:33.483Z,6.93
2019-01-11T15:57:41.891Z,6.92
2019-01-11T16:02:44.652Z,6.97
2019-01-11T16:07:48.811Z,6.89
2019-01-11T16:13:20.907Z,6.78
2019-01-11T16:18:25.961Z,6.73
2019-01-11T16:23:28.822Z,6.77
2019-01-11T16:28:31.616Z,6.83
2019-01-11T16:33:34.070Z,6.63
2019-01-11T16:38:36.458Z,6.56
2019-01-11T16:43:39.724Z,6.60
2019-01-11T16:48:42.164Z,6.54
2019-01-11T16:53:45.257Z,6.47
2019-01-11T16:58:48.158Z,6.44
2019-01-11T17:03:50.661Z,6.33
2019-01-11T17:08:53.755Z,6.45
2019-01-11T17:13:56.660Z,6.15
2019-01-11T17:18:59.451Z,6.18
2019-01-11T17:24:01.959Z,6.24
2019-01-11T17:29:04.989Z,6.23
2019-01-11T17:34:08.294Z,6.00
2019-01-11T17:39:11.047Z,6.04
2019-01-11T17:44:13.566Z,5.97
2019-01-11T17:49:16.477Z,5.84
2019-01-11T17:54:19.221Z,5.86
2019-01-11T17:59:21.662Z,5.93
2019-01-11T18:04:24.473Z,5.90
2019-01-11T18:09:27.306Z,5.84
2019-01-11T18:14:29.562Z,5.87
2019-01-11T18:19:32.715Z,5.75
2019-01-11T18:24:35.679Z,5.75
2019-01-11T18:29:38.824Z,5.75
2019-01-11T18:34:41.900Z,5.66
2019-01-11T18:39:44.699Z,5.68
2019-01-11T18:44:47.589Z,5.65
2019-01-11T18:49:51.408Z,5.67
2019-01-11T18:54:54.107Z,5.52
2019-01-11T18:59:56.813Z,5.53
2019-01-11T19:04:59.713Z,5.57
2019-01-11T19:10:03.256Z,5.59
2019-01-11T19:15:08.487Z,5.51
2019-01-11T19:20:18.051Z,5.42
2019-01-11T19:25:21.281Z,5.47
2019-01-11T19:30:27.124Z,5.54
2019-01-11T19:35:29.821Z,5.47
2019-01-11T19:40:33.379Z,5.35
2019-01-11T19:45:36.631Z,5.22
2019-01-11T19:50:40.636Z,5.34
2019-01-11T19:55:43.523Z,5.32
2019-01-11T20:00:47.901Z,5.29
2019-01-11T20:05:50.402Z,5.31
2019-01-11T20:10:55.158Z,5.28
2019-01-11T20:16:01.135Z,5.14
2019-01-11T20:21:05.138Z,5.24
2019-01-11T20:26:09.530Z,5.22
2019-01-11T20:31:14.109Z,5.16
2019-01-11T20:36:17.610Z,5.19
2019-01-11T20:41:23.803Z,5.22
2019-01-11T20:46:29.987Z,5.25
2019-01-11T20:51:34.085Z,5.16
2019-01-11T20:56:38.279Z,5.04
2019-01-11T21:01:42.977Z,5.04
2019-01-11T21:06:47.751Z,5.14
2019-01-11T21:11:51.665Z,5.06
2019-01-11T21:16:54.764Z,5.19
2019-01-11T21:21:58.566Z,5.17
2019-01-11T21:27:01.956Z,5.07
2019-01-11T21:32:04.771Z,5.11
2019-01-11T21:37:08.289Z,5.02
2019-01-11T21:42:11.448Z,5.00
2019-01-11T21:47:14.063Z,5.02
2019-01-11T21:52:16.884Z,4.96
2019-01-11T21:57:19.512Z,5.11
2019-01-11T22:02:21.870Z,4.97
2019-01-11T22:07:24.157Z,4.98
2019-01-11T22:12:27.366Z,4.98
2019-01-11T22:17:30.151Z,5.00
2019-01-11T22:22:32.842Z,4.99
2019-01-11T22:27:35.777Z,5.03
2019-01-11T22:32:38.800Z,5.05
2019-01-11T22:37:41.990Z,4.91
2019-01-11T22:42:44.957Z,4.98
2019-01-11T22:47:48.085Z,5.12
2019-01-11T22:52:50.577Z,5.00
2019-01-11T22:57:53.372Z,4.93
2019-01-11T23:02:57.633Z,5.16
2019-01-11T23:08:03.193Z,5.07
2019-01-11T23:13:09.449Z,4.92
2019-01-11T23:18:14.119Z,4.92
2019-01-11T23:23:17.119Z,4.94
2019-01-11T23:28:19.565Z,4.96
2019-01-11T23:33:22.450Z,4.93
2019-01-11T23:38:25.517Z,4.96
2019-01-11T23:43:27.863Z,4.90
2019-01-11T23:48:30.567Z,4.90
2019-01-11T23:53:33.100Z,4.99
2019-01-11T23:58:35.756Z,4.94
